DH3PAE-6 Weather Reports


Display with metric or nautical units.
time (UTC)temp
F
wind
direction
speed
MPH
gust
MPH
rain 1hr
in
rain 24hr
in
rain mn
in
humidity
%
barometer
mb
20190918172851 54 0 0.0 0.0 0.00 0.00 0.00 68 1026.7
20190918171850 54 0 0.0 3.0 0.00 0.00 0.00 67 1026.7
20190918165849 55 0 0.0 0.0 0.00 0.00 0.00 64 1026.6
20190918164853 57 315 0.0 6.0 0.00 0.00 0.00 61 1026.5
20190918163852 57 0 0.0 0.0 0.00 0.00 0.00 61 1026.6
20190918162851 57 0 0.0 6.0 0.00 0.00 0.00 59 1026.5
20190918161849 58 315 5.0 10.0 0.00 0.00 0.00 57 1026.4
20190918160931 58 0 0.0 2.0 0.00 0.00 0.00 57 1026.4
20190918160849 58 0 0.0 2.0 0.00 0.00 0.00 57 1026.4
20190918155850 59 315 3.0 7.0 0.00 0.00 0.00 56 1026.5
20190918154850 59 315 3.0 9.0 0.00 0.00 0.00 56 1026.5
20190918153850 58 292 0.0 6.0 0.00 0.00 0.00 57 1026.5
20190918152849 60 315 4.0 10.0 0.00 0.00 0.00 53 1026.5
20190918151852 61 315 4.0 10.0 0.00 0.00 0.00 52 1026.4
20190918145854 61 0 0.0 5.0 0.00 0.00 0.00 53 1026.5
20190918144849 60 315 1.0 10.0 0.00 0.00 0.00 53 1026.6
20190918143850 61 292 5.0 13.0 0.00 0.00 0.00 51 1026.6
20190918142849 61 315 4.0 7.0 0.00 0.00 0.00 54 1026.6
20190918141851 61 337 1.0 8.0 0.00 0.00 0.00 56 1026.6
20190918140853 60 315 1.0 12.0 0.00 0.00 0.00 55 1026.7
20190918135850 58 0 0.0 6.0 0.00 0.00 0.00 59 1026.8
20190918134851 61 315 4.0 13.0 0.00 0.00 0.00 53 1026.8
20190918132853 59 315 0.0 7.0 0.00 0.00 0.00 58 1026.9
20190918125849 59 315 3.0 10.0 0.00 0.00 0.00 61 1027.1
20190918124851 61 315 1.0 7.0 0.00 0.00 0.00 56 1027.0
20190918123850 60 315 2.0 5.0 0.00 0.00 0.00 57 1027.2
20190918122849 59 315 3.0 14.0 0.00 0.00 0.00 59 1027.2
20190918120852 60 337 1.0 9.0 0.00 0.00 0.00 56 1027.4
20190918115850 59 292 1.0 11.0 0.00 0.00 0.00 61 1027.4
20190918113849 59 360 1.0 5.0 0.00 0.00 0.00 59 1027.6
20190918112850 59 315 5.0 11.0 0.00 0.00 0.00 59 1027.5
20190918111849 58 337 3.0 7.0 0.00 0.00 0.00 63 1027.5
20190918110852 56 337 2.0 6.0 0.00 0.00 0.00 69 1027.7
20190918105851 56 0 0.0 6.0 0.00 0.00 0.00 68 1027.7
20190918104850 56 315 3.0 9.0 0.00 0.00 0.00 68 1027.8
20190918103852 57 315 1.0 7.0 0.00 0.00 0.00 64 1027.8
20190918102850 58 360 0.0 10.0 0.00 0.00 0.00 61 1027.9
20190918101848 57 0 0.0 7.0 0.00 0.00 0.00 66 1027.9
20190918095849 56 360 1.0 4.0 0.00 0.00 0.00 68 1027.9
20190918094849 56 315 4.0 9.0 0.00 0.00 0.00 66 1027.8
20190918093849 57 22 3.0 6.0 0.00 0.00 0.00 65 1027.8
20190918092850 56 0 0.0 9.0 0.00 0.00 0.00 67 1027.9
20190918084850 55 337 2.0 7.0 0.00 0.00 0.00 73 1027.9
20190918083851 55 337 1.0 7.0 0.00 0.00 0.00 73 1027.9
20190918082848 54 315 1.0 7.0 0.00 0.00 0.00 76 1027.8
20190918081850 53 315 3.0 6.0 0.00 0.00 0.00 79 1027.8
20190918080851 52 315 0.0 7.0 0.00 0.00 0.00 82 1027.7
20190918075849 51 315 1.0 5.0 0.00 0.00 0.00 85 1027.7
20190918074849 50 315 4.0 8.0 0.00 0.00 0.00 87 1027.6
20190918073851 50 315 2.0 6.0 0.00 0.00 0.00 93 1027.4
20190918072849 47 0 0.0 0.0 0.00 0.00 0.00 95 1027.4
20190918065853 42 0 0.0 0.0 0.00 0.00 0.00 96 1027.2
20190918064850 41 0 0.0 0.0 0.00 0.00 0.00 96 1027.0
20190918063857 40 0 0.0 0.0 0.00 0.00 0.00 96 1027.0
20190918062848 39 0 0.0 0.0 0.00 0.00 0.00 96 1026.9
20190918061850 38 0 0.0 0.0 0.00 0.00 0.00 96 1026.7
20190918055849 36 0 0.0 0.0 0.00 0.00 0.00 95 1026.5
20190918054849 37 0 0.0 0.0 0.00 0.00 0.00 95 1026.4
20190918053849 37 0 0.0 0.0 0.00 0.00 0.00 95 1026.4
20190918051849 36 0 0.0 0.0 0.00 0.00 0.00 95 1026.3
20190918050848 37 0 0.0 0.0 0.00 0.00 0.00 95 1026.2
20190918045920 37 0 0.0 0.0 0.00 0.00 0.00 95 1026.1
20190918045848 37 0 0.0 0.0 0.00 0.00 0.00 95 1026.1
20190918044848 37 0 0.0 0.0 0.00 0.00 0.00 95 1026.1
20190918043848 37 0 0.0 0.0 0.00 0.00 0.00 95 1026.0
20190918042849 37 0 0.0 0.0 0.00 0.00 0.00 95 1026.0
20190918041849 37 0 0.0 0.0 0.00 0.00 0.00 95 1025.9
20190918040849 37 0 0.0 0.0 0.00 0.00 0.00 94 1025.9
20190918035849 37 0 0.0 0.0 0.00 0.00 0.00 94 1025.9
20190918034849 38 0 0.0 0.0 0.00 0.00 0.00 94 1025.8
20190918033849 38 0 0.0 0.0 0.00 0.00 0.00 94 1025.8
20190918032849 38 0 0.0 0.0 0.00 0.00 0.00 94 1025.8
20190918031848 38 0 0.0 0.0 0.00 0.00 0.00 94 1025.7
20190918030848 38 0 0.0 0.0 0.00 0.00 0.00 94 1025.7
20190918025847 38 0 0.0 0.0 0.00 0.00 0.00 94 1025.6
20190918024850 38 0 0.0 0.0 0.00 0.00 0.00 94 1025.4
20190918023851 38 0 0.0 0.0 0.00 0.00 0.00 93 1025.4
20190918022850 39 0 0.0 0.0 0.00 0.00 0.00 94 1025.4
20190918021234 39 0 0.0 0.0 0.00 0.00 0.00 94 1025.4
20190918020233 39 0 0.0 0.0 0.00 0.00 0.00 93 1025.4
20190918015236 39 0 0.0 0.0 0.00 0.01 0.00 93 1025.3
20190918014237 40 0 0.0 0.0 0.00 0.01 0.00 93 1025.3
20190918013235 39 0 0.0 0.0 0.00 0.01 0.00 93 1025.2
20190918012237 40 0 0.0 0.0 0.00 0.01 0.00 93 1025.3
20190918011235 40 0 0.0 0.0 0.00 0.01 0.00 92 1025.2
20190918005237 40 0 0.0 0.0 0.00 0.01 0.00 92 1025.3
20190918004235 41 0 0.0 0.0 0.00 0.01 0.00 92 1025.4
20190918003234 41 0 0.0 0.0 0.00 0.01 0.00 92 1025.4
20190918002238 41 0 0.0 0.0 0.00 0.01 0.00 91 1025.5
20190918000237 41 0 0.0 0.0 0.00 0.01 0.00 91 1025.4
20190917235234 41 0 0.0 0.0 0.00 0.01 0.00 90 1025.4
20190917234234 42 0 0.0 0.0 0.00 0.01 0.00 90 1025.3
20190917233235 42 0 0.0 0.0 0.00 0.01 0.00 90 1025.3
20190917232237 42 0 0.0 0.0 0.00 0.01 0.00 89 1025.3
20190917231234 43 0 0.0 0.0 0.00 0.01 0.00 89 1025.2
20190917230233 43 0 0.0 0.0 0.00 0.01 0.00 88 1025.2
20190917225235 44 0 0.0 0.0 0.00 0.01 0.00 87 1025.1
20190917224237 44 0 0.0 0.0 0.00 0.01 0.00 87 1025.1
20190917223234 45 0 0.0 0.0 0.00 0.01 0.00 85 1025.0
20190917222234 46 0 0.0 0.0 0.00 0.01 0.00 85 1024.8
20190917221233 47 0 0.0 0.0 0.00 0.01 0.00 85 1024.8
20190917220239 47 0 0.0 0.0 0.00 0.01 0.00 84 1024.7
20190917214234 48 0 0.0 0.0 0.00 0.01 0.01 81 1024.6
20190917213234 49 0 0.0 0.0 0.00 0.01 0.01 80 1024.7
20190917212233 49 0 0.0 0.0 0.00 0.01 0.01 79 1024.6
20190917211235 50 0 0.0 0.0 0.00 0.01 0.01 79 1024.4
20190917210234 50 0 0.0 4.0 0.00 0.01 0.01 78 1024.3
20190917205234 50 315 1.0 5.0 0.00 0.01 0.01 77 1024.2
20190917204234 51 315 0.0 6.0 0.00 0.01 0.01 75 1024.3
20190917203234 52 315 2.0 9.0 0.00 0.01 0.01 75 1024.2
20190917202238 52 315 2.0 7.0 0.00 0.01 0.01 74 1024.1
20190917201233 52 315 2.0 9.0 0.00 0.01 0.01 74 1023.9
20190917200237 52 0 0.0 9.0 0.00 0.01 0.01 74 1023.8
20190917195234 52 315 4.0 10.0 0.00 0.02 0.01 74 1023.7
20190917194234 53 315 3.0 12.0 0.00 0.02 0.01 75 1023.6
20190917193233 53 315 3.0 10.0 0.00 0.02 0.01 75 1023.5
20190917192234 53 315 4.0 9.0 0.00 0.02 0.01 78 1023.5
20190917191235 54 315 2.0 12.0 0.00 0.02 0.01 79 1023.3
20190917190234 54 315 5.0 16.0 0.00 0.02 0.01 78 1023.2
20190917185234 55 337 5.0 19.0 0.00 0.03 0.01 76 1023.0
20190917184235 55 315 2.0 12.0 0.00 0.03 0.01 72 1022.7
20190917182233 56 315 4.0 9.0 0.00 0.03 0.01 71 1022.2
20190917181238 56 315 3.0 16.0 0.00 0.03 0.01 73 1022.1
20190917175235 57 270 3.0 10.0 0.00 0.03 0.01 73 1021.7
20190917174234 57 292 1.0 12.0 0.00 0.03 0.01 71 1021.5
20190917173234 58 315 0.0 10.0 0.00 0.03 0.01 70 1021.6